Time;durP1;ratioP1;P1;durP2;ratioP2;P2;SDS_P1;SDS_P2;PMS_P1;PMS_P2;Temp;Humidity;BMP_temperature;BMP_pressure;BME280_temperature;BME280_humidity;BME280_pressure;Samples;Min_cycle;Max_cycle;Signal;HPM_P1;HPM_P2
2023/10/10 00:00:35;;;;;;;30.92;25.48;;;;;;;13.10;100.00;101978.34;5040583;28;20017;-63
2023/10/10 00:03:06;;;;;;;32.75;26.20;;;;;;;13.08;100.00;101975.03;5037936;28;20110;-63
2023/10/10 00:05:36;;;;;;;29.30;25.80;;;;;;;13.04;100.00;101977.59;5031046;28;20026;-63
2023/10/10 00:08:02;;;;;;;30.33;24.85;;;;;;;13.04;100.00;101972.03;5010536;28;20027;-63
2023/10/10 00:10:30;;;;;;;31.80;25.33;;;;;;;13.01;100.00;101983.72;5038417;28;20103;-63
2023/10/10 00:12:56;;;;;;;32.17;26.40;;;;;;;12.99;100.00;101979.59;5041390;28;20043;-64
2023/10/10 00:15:32;;;;;;;30.95;26.23;;;;;;;12.92;100.00;101977.16;5040630;28;20017;-64
2023/10/10 00:18:02;;;;;;;34.22;27.20;;;;;;;12.90;100.00;101980.25;5045976;28;20029;-66
2023/10/10 00:20:35;;;;;;;31.92;26.20;;;;;;;12.90;100.00;101965.50;5052994;28;20028;-66
2023/10/10 00:23:04;;;;;;;33.10;27.00;;;;;;;12.89;100.00;101977.75;5041912;28;20052;-63
2023/10/10 00:25:32;;;;;;;31.25;25.52;;;;;;;12.92;100.00;101979.94;5052743;28;20387;-64
2023/10/10 00:28:17;;;;;;;29.85;24.92;;;;;;;12.92;100.00;101980.78;5043223;28;20148;-65
2023/10/10 00:30:43;;;;;;;33.10;25.83;;;;;;;12.88;100.00;101979.69;5051114;28;20087;-64
2023/10/10 00:33:09;;;;;;;31.38;24.63;;;;;;;12.88;100.00;101974.16;5033092;28;20026;-63
2023/10/10 00:35:34;;;;;;;31.63;24.50;;;;;;;12.84;100.00;101969.47;5045310;28;20494;-64
2023/10/10 00:38:03;;;;;;;30.48;24.45;;;;;;;12.80;100.00;101978.38;5041391;28;20464;-65
2023/10/10 00:40:38;;;;;;;30.98;26.15;;;;;;;12.78;100.00;101965.91;5034441;28;20031;-63
2023/10/10 00:43:04;;;;;;;31.92;26.60;;;;;;;12.76;100.00;101965.38;5048360;28;20105;-64
2023/10/10 00:45:33;;;;;;;29.65;25.27;;;;;;;12.74;100.00;101978.75;5028145;28;20166;-64
2023/10/10 00:48:00;;;;;;;33.03;26.33;;;;;;;12.69;100.00;101976.84;5017768;28;20476;-65
2023/10/10 00:50:27;;;;;;;34.58;26.02;;;;;;;12.67;100.00;101967.97;5035096;28;20034;-64
2023/10/10 00:52:53;;;;;;;29.70;25.85;;;;;;;12.69;100.00;101964.91;5033878;28;20087;-64
2023/10/10 00:55:22;;;;;;;31.95;26.80;;;;;;;12.70;100.00;101972.97;5037759;28;20361;-65
2023/10/10 00:57:52;;;;;;;32.10;26.30;;;;;;;12.73;100.00;101968.75;5038991;28;20100;-64
2023/10/10 01:00:19;;;;;;;30.30;26.15;;;;;;;12.73;100.00;101963.22;5035402;28;20029;-64
2023/10/10 01:02:45;;;;;;;32.47;27.25;;;;;;;12.71;100.00;101963.47;5030978;28;20029;-63
2023/10/10 01:05:14;;;;;;;30.50;26.80;;;;;;;12.68;100.00;101961.31;5043171;28;20032;-63
2023/10/10 01:07:40;;;;;;;33.65;26.85;;;;;;;12.70;100.00;101953.53;5042225;28;20507;-64
2023/10/10 01:10:12;;;;;;;32.75;28.02;;;;;;;12.69;100.00;101946.31;5041508;28;20072;-64
2023/10/10 01:12:39;;;;;;;33.17;28.10;;;;;;;12.71;100.00;101946.00;5047423;28;20021;-65
2023/10/10 01:15:35;;;;;;;32.38;26.95;;;;;;;12.71;100.00;101941.28;5032951;28;20037;-65
2023/10/10 01:17:54;;;;;;;32.83;27.38;;;;;;;12.70;100.00;101942.41;5028452;28;20084;-64
2023/10/10 01:20:45;;;;;;;31.75;27.38;;;;;;;12.71;100.00;101946.00;5041038;28;20116;-66
2023/10/10 01:23:11;;;;;;;34.10;28.08;;;;;;;12.67;100.00;101943.00;5032661;28;20038;-65
2023/10/10 01:28:05;;;;;;;31.85;26.70;;;;;;;12.67;100.00;101937.44;5031288;28;20152;-65
2023/10/10 01:30:43;;;;;;;34.08;27.50;;;;;;;12.66;100.00;101933.00;5030286;28;20052;-65
2023/10/10 01:33:16;;;;;;;32.25;26.67;;;;;;;12.62;100.00;101926.38;5013367;28;20484;-66
2023/10/10 01:35:42;;;;;;;31.25;26.85;;;;;;;12.61;100.00;101922.78;5038963;28;20029;-65
2023/10/10 01:38:38;;;;;;;31.40;26.88;;;;;;;12.60;100.00;101918.34;5051517;28;20068;-64
2023/10/10 01:41:15;;;;;;;30.92;27.45;;;;;;;12.58;100.00;101915.03;5045011;28;20083;-65
2023/10/10 01:43:46;;;;;;;32.47;28.00;;;;;;;12.55;100.00;101912.03;5047037;28;20453;-67
2023/10/10 01:46:19;;;;;;;34.38;29.05;;;;;;;12.50;100.00;101909.31;5031675;28;20052;-66
2023/10/10 01:48:45;;;;;;;33.70;28.85;;;;;;;12.46;100.00;101903.53;5031374;28;20175;-64
2023/10/10 01:51:15;;;;;;;34.00;30.13;;;;;;;12.41;100.00;101914.66;5021039;28;20759;-64
2023/10/10 01:53:40;;;;;;;33.10;29.15;;;;;;;12.40;100.00;101905.53;5016841;28;20037;-64
2023/10/10 01:56:11;;;;;;;34.45;30.00;;;;;;;12.37;100.00;101905.28;5029351;28;20069;-64
2023/10/10 01:58:37;;;;;;;33.17;29.50;;;;;;;12.36;100.00;101910.00;5050815;28;20033;-64
2023/10/10 02:01:14;;;;;;;33.58;29.75;;;;;;;12.35;100.00;101896.41;5030141;28;20083;-64
2023/10/10 02:03:40;;;;;;;32.60;28.73;;;;;;;12.36;100.00;101898.06;5031122;28;20112;-64
2023/10/10 02:06:13;;;;;;;34.10;29.10;;;;;;;12.34;100.00;101890.03;5031745;28;20052;-64
2023/10/10 02:08:39;;;;;;;35.13;29.75;;;;;;;12.37;100.00;101886.69;5028425;28;20029;-65
2023/10/10 02:11:06;;;;;;;37.28;30.65;;;;;;;12.37;100.00;101891.41;5041469;28;20069;-64
2023/10/10 02:13:33;;;;;;;33.58;29.85;;;;;;;12.36;100.00;101884.19;5033245;28;20026;-64
2023/10/10 02:16:00;;;;;;;36.38;30.48;;;;;;;12.31;100.00;101880.34;5042055;28;20029;-64
2023/10/10 02:18:38;;;;;;;35.20;30.60;;;;;;;12.27;100.00;101873.75;5025833;28;20728;-64
2023/10/10 02:21:09;;;;;;;34.53;30.75;;;;;;;12.26;100.00;101877.63;5051264;28;20345;-64
2023/10/10 02:23:35;;;;;;;35.65;30.73;;;;;;;12.24;100.00;101879.88;5033780;28;20516;-64
2023/10/10 02:26:23;;;;;;;33.53;29.77;;;;;;;12.26;100.00;101876.78;5040692;28;20116;-64
2023/10/10 02:28:49;;;;;;;35.92;31.67;;;;;;;12.24;100.00;101877.09;5040721;28;20404;-65
2023/10/10 02:31:16;;;;;;;35.67;31.35;;;;;;;12.23;100.00;101877.41;5031181;28;20040;-64
2023/10/10 02:34:02;;;;;;;34.35;30.67;;;;;;;12.21;100.00;101872.13;5012720;28;20060;-64
2023/10/10 02:36:30;;;;;;;34.20;29.65;;;;;;;12.23;100.00;101869.06;5042725;28;20133;-65
2023/10/10 02:39:10;;;;;;;34.15;30.25;;;;;;;12.20;100.00;101870.47;5044003;28;20485;-64
2023/10/10 02:41:38;;;;;;;35.63;30.75;;;;;;;12.21;100.00;101865.75;5011601;28;20026;-64
2023/10/10 02:44:07;;;;;;;33.28;29.55;;;;;;;12.20;100.00;101872.41;5029842;28;20025;-64
2023/10/10 02:46:34;;;;;;;36.67;31.38;;;;;;;12.17;100.00;101857.19;5032881;28;20476;-65
2023/10/10 02:49:12;;;;;;;34.25;30.35;;;;;;;12.19;100.00;101868.00;5044042;28;20024;-64
2023/10/10 02:51:43;;;;;;;36.55;31.05;;;;;;;12.16;100.00;101861.09;5034654;28;20040;-64
2023/10/10 02:56:58;;;;;;;34.28;29.92;;;;;;;12.16;100.00;101863.84;5022527;28;20197;-64
2023/10/10 02:59:38;;;;;;;32.75;28.95;;;;;;;12.15;100.00;101859.44;5033351;28;20070;-64
2023/10/10 03:02:18;;;;;;;33.35;29.17;;;;;;;12.11;100.00;101866.66;5037127;28;20033;-65
2023/10/10 03:04:55;;;;;;;34.80;29.70;;;;;;;12.09;100.00;101866.97;5020333;28;20542;-64
2023/10/10 03:07:30;;;;;;;33.97;29.52;;;;;;;12.06;100.00;101862.00;5048903;28;20033;-64
2023/10/10 03:10:41;;;;;;;34.22;29.85;;;;;;;12.05;100.00;101865.06;5036862;28;20033;-64
2023/10/10 03:12:50;;;;;;;34.58;29.15;;;;;;;12.03;100.00;101862.59;5022561;28;20175;-64
2023/10/10 03:25:47;;;;;;;35.33;31.27;;;;;;;11.98;100.00;101863.47;5037271;28;20044;-63
2023/10/10 03:31:10;;;;;;;36.17;32.22;;;;;;;11.93;100.00;101860.69;5044475;28;20052;-64
2023/10/10 05:23:29;;;;;;;38.10;31.85;;;;;;;11.83;100.00;101869.94;5062838;28;20040;-65
2023/10/10 05:25:31;;;;;;;49.25;41.15;;;;;;;11.61;100.00;101800.25;5063035;28;20123;-64
2023/10/10 05:27:58;;;;;;;49.30;42.53;;;;;;;11.60;100.00;101804.97;5060502;28;20033;-65
2023/10/10 05:30:25;;;;;;;52.75;43.75;;;;;;;11.57;100.00;101802.78;5053741;28;20507;-64
2023/10/10 05:33:03;;;;;;;50.30;42.17;;;;;;;11.58;100.00;101795.28;5066749;28;20372;-65
2023/10/10 05:35:40;;;;;;;51.70;41.63;;;;;;;11.55;100.00;101791.16;5055992;28;20036;-65
2023/10/10 05:38:10;;;;;;;48.80;40.63;;;;;;;11.53;100.00;101793.38;5055172;28;20056;-65
2023/10/10 05:40:38;;;;;;;47.80;40.78;;;;;;;11.51;100.00;101790.91;5052593;28;20777;-64
2023/10/10 05:43:09;;;;;;;46.28;40.10;;;;;;;11.52;100.00;101791.75;5071862;28;20032;-64
2023/10/10 05:45:35;;;;;;;48.40;40.08;;;;;;;11.49;100.00;101792.31;5061589;28;20040;-65
2023/10/10 05:48:01;;;;;;;46.28;41.08;;;;;;;11.48;100.00;101785.13;5061335;28;20024;-64
2023/10/10 05:50:27;;;;;;;48.28;40.70;;;;;;;11.47;100.00;101786.22;5051794;28;20476;-65
2023/10/10 05:52:53;;;;;;;49.30;40.45;;;;;;;11.43;100.00;101786.00;5051449;28;20020;-65
2023/10/10 05:55:20;;;;;;;46.65;40.47;;;;;;;11.43;100.00;101791.53;5051744;28;20028;-65
2023/10/10 05:57:45;;;;;;;46.58;39.78;;;;;;;11.42;100.00;101789.06;5047330;28;20033;-65
2023/10/10 06:00:13;;;;;;;48.05;39.03;;;;;;;11.42;100.00;101800.13;5030122;28;20052;-62
2023/10/10 06:02:42;;;;;;;47.15;39.63;;;;;;;11.40;100.00;101797.63;5038136;28;20040;-63
2023/10/10 06:05:09;;;;;;;47.80;38.40;;;;;;;11.38;100.00;101789.63;5049725;28;20044;-64
2023/10/10 06:07:37;;;;;;;46.60;38.17;;;;;;;11.39;100.00;101782.97;5048995;28;20071;-64
2023/10/10 06:10:06;;;;;;;44.72;37.40;;;;;;;11.40;100.00;101789.31;5050134;28;20432;-64
2023/10/10 06:12:33;;;;;;;44.80;36.17;;;;;;;11.40;100.00;101783.78;5050267;28;20064;-63
2023/10/10 06:15:05;;;;;;;46.47;37.05;;;;;;;11.39;100.00;101787.66;5055312;28;20025;-65
2023/10/10 06:17:33;;;;;;;47.15;36.03;;;;;;;11.41;100.00;101790.97;5052092;28;20456;-63
2023/10/10 06:19:59;;;;;;;45.03;36.60;;;;;;;11.42;100.00;101784.31;5032849;28;20033;-63
2023/10/10 06:22:25;;;;;;;44.50;36.95;;;;;;;11.41;100.00;101785.44;5037004;28;20044;-63
2023/10/10 06:24:57;;;;;;;43.58;35.25;;;;;;;11.43;100.00;101783.22;5069988;28;20115;-64
2023/10/10 06:27:29;;;;;;;44.22;35.40;;;;;;;11.45;100.00;101777.38;5070606;28;20493;-63
2023/10/10 06:29:58;;;;;;;44.97;35.10;;;;;;;11.46;100.00;101782.66;5070478;28;20748;-64
2023/10/10 06:32:30;;;;;;;45.33;35.03;;;;;;;11.47;100.00;101775.16;5070480;28;20040;-64
2023/10/10 06:37:43;;;;;;;42.10;34.95;;;;;;;11.53;100.00;101774.81;5070914;28;20462;-64
2023/10/10 06:40:09;;;;;;;42.05;34.88;;;;;;;11.54;100.00;101779.25;5069619;28;20032;-62
2023/10/10 06:42:38;;;;;;;42.05;34.72;;;;;;;11.60;100.00;101781.97;5054811;28;20760;-63
2023/10/10 06:45:07;;;;;;;41.60;34.40;;;;;;;11.63;100.00;101776.66;5049513;28;20033;-64
2023/10/10 06:47:47;;;;;;;40.20;32.95;;;;;;;11.69;100.00;101775.53;5056962;28;20032;-63
2023/10/10 06:50:12;;;;;;;41.80;34.00;;;;;;;11.73;100.00;101769.38;5057093;28;20047;-63
2023/10/10 06:52:38;;;;;;;38.35;31.65;;;;;;;11.76;100.00;101771.56;5069127;28;20028;-63
2023/10/10 06:55:21;;;;;;;41.80;33.03;;;;;;;11.79;100.00;101774.59;5069228;28;20055;-63
2023/10/10 06:57:57;;;;;;;36.92;31.50;;;;;;;11.83;100.00;101763.75;5069377;28;20739;-63
2023/10/10 07:00:32;;;;;;;39.05;32.42;;;;;;;11.89;100.00;101772.84;5068939;28;20112;-62
2023/10/10 07:02:59;;;;;;;37.83;31.88;;;;;;;11.92;100.00;101772.25;5069192;28;20111;-62
2023/10/10 07:05:28;;;;;;;38.03;31.38;;;;;;;11.95;100.00;101768.91;5068889;28;20037;-63
2023/10/10 07:08:00;;;;;;;38.13;32.80;;;;;;;11.99;100.00;101773.63;5068164;28;20154;-62
2023/10/10 07:10:33;;;;;;;40.83;33.20;;;;;;;12.07;100.00;101777.66;5069059;28;20032;-63
2023/10/10 07:13:03;;;;;;;36.97;31.00;;;;;;;12.14;100.00;101774.56;5069004;28;20024;-63
2023/10/10 07:15:35;;;;;;;35.22;31.10;;;;;;;12.19;100.00;101766.16;5058120;28;20080;-63
2023/10/10 07:18:09;;;;;;;36.42;30.73;;;;;;;12.24;100.00;101763.34;5049439;28;20060;-64
2023/10/10 07:23:21;;;;;;;37.42;30.40;;;;;;;12.39;100.00;101770.66;5049048;28;20128;-63
2023/10/10 07:25:59;;;;;;;36.40;30.23;;;;;;;12.43;100.00;101755.06;5049752;28;20494;-64
2023/10/10 07:28:26;;;;;;;37.60;31.02;;;;;;;12.50;100.00;101762.22;5035426;28;20114;-64
2023/10/10 07:30:52;;;;;;;36.13;28.52;;;;;;;12.55;100.00;101759.38;5055367;28;20033;-64
2023/10/10 07:33:22;;;;;;;35.75;29.35;;;;;;;12.61;100.00;101753.44;5068981;28;20056;-63
2023/10/10 07:35:53;;;;;;;35.17;29.42;;;;;;;12.69;100.00;101756.69;5051889;28;20036;-64
2023/10/10 07:38:28;;;;;;;37.22;29.65;;;;;;;12.76;100.00;101757.97;5049111;28;20032;-63
2023/10/10 07:40:54;;;;;;;35.10;28.17;;;;;;;12.80;100.00;101755.44;5048736;28;20514;-62
2023/10/10 07:43:20;;;;;;;36.47;28.60;;;;;;;12.87;100.00;101757.84;5048817;28;20105;-63
2023/10/10 07:45:47;;;;;;;35.78;28.33;;;;;;;12.90;100.00;101755.28;5049136;28;20040;-63
2023/10/10 07:50:48;;;;;;;35.70;28.70;;;;;;;13.04;100.00;101741.47;5029038;28;20037;-63
2023/10/10 07:53:14;;;;;;;37.05;29.45;;;;;;;13.07;100.00;101745.59;5029393;28;20370;-64
2023/10/10 07:55:53;;;;;;;35.40;29.25;;;;;;;13.16;100.00;101751.31;5029193;28;20030;-65
2023/10/10 07:58:23;;;;;;;36.53;29.42;;;;;;;13.24;100.00;101762.53;5031577;28;20043;-64
2023/10/10 08:00:52;;;;;;;35.35;28.17;;;;;;;13.32;100.00;101757.44;5065740;28;20029;-64
2023/10/10 08:03:21;;;;;;;35.83;28.02;;;;;;;13.37;100.00;101769.28;5069596;28;20059;-65
2023/10/10 08:05:48;;;;;;;38.45;28.33;;;;;;;13.43;100.00;101766.47;5053519;28;20044;-64
2023/10/10 08:08:17;;;;;;;36.05;28.70;;;;;;;13.47;100.00;101757.22;5062051;28;20566;-64
2023/10/10 08:10:46;;;;;;;35.72;27.77;;;;;;;13.56;100.00;101769.28;5057506;28;20033;-64
2023/10/10 08:13:11;;;;;;;39.97;29.67;;;;;;;13.63;100.00;101771.69;5042261;28;20037;-63
2023/10/10 08:21:10;;;;;;;36.90;29.27;;;;;;;13.85;100.00;101759.06;5032927;28;20068;-65
2023/10/10 08:23:42;;;;;;;35.92;29.30;;;;;;;13.93;100.00;101765.88;5065044;28;20481;-65
2023/10/10 08:26:26;;;;;;;34.67;29.20;;;;;;;14.05;100.00;101752.31;5045602;28;20420;-64
2023/10/10 08:28:52;;;;;;;35.80;29.33;;;;;;;14.10;100.00;101756.94;5049259;28;20033;-64
2023/10/10 08:31:19;;;;;;;35.53;29.08;;;;;;;14.15;100.00;101760.44;5062065;28;20041;-65
2023/10/10 08:33:46;;;;;;;36.45;28.98;;;;;;;14.20;100.00;101752.00;5068317;28;20037;-64
2023/10/10 08:36:23;;;;;;;36.05;29.20;;;;;;;14.28;100.00;101749.63;5068022;28;20024;-66
2023/10/10 08:38:58;;;;;;;36.53;29.60;;;;;;;14.32;100.00;101753.44;5069445;28;20025;-64
2023/10/10 08:41:31;;;;;;;34.70;29.00;;;;;;;14.35;100.00;101756.44;5071715;28;20244;-65
2023/10/10 08:44:01;;;;;;;37.60;29.58;;;;;;;14.40;100.00;101749.94;5071587;28;20025;-64
2023/10/10 08:46:31;;;;;;;37.25;29.60;;;;;;;14.45;100.00;101754.56;5053636;28;20073;-64
2023/10/10 08:48:58;;;;;;;36.00;28.63;;;;;;;14.45;100.00;101749.81;5071742;28;20048;-65
2023/10/10 08:51:31;;;;;;;34.92;29.58;;;;;;;14.54;100.00;101763.03;5071576;28;20060;-65
2023/10/10 08:53:56;;;;;;;35.45;27.88;;;;;;;14.59;100.00;101765.69;5071527;28;20033;-65
2023/10/10 08:56:21;;;;;;;35.47;28.10;;;;;;;14.64;100.00;101771.16;5058528;28;20033;-64
2023/10/10 08:58:48;;;;;;;36.10;28.35;;;;;;;14.69;100.00;101771.06;5051795;28;20033;-64
2023/10/10 09:01:13;;;;;;;34.08;27.85;;;;;;;14.71;100.00;101767.97;5051248;28;20142;-64
2023/10/10 09:03:45;;;;;;;32.00;27.10;;;;;;;14.76;100.00;101760.31;5033543;28;20029;-63
2023/10/10 09:06:19;;;;;;;33.97;27.10;;;;;;;14.83;100.00;101768.25;5051787;28;20076;-65
2023/10/10 09:08:49;;;;;;;33.08;26.30;;;;;;;14.87;100.00;101766.50;5050772;28;20040;-65
2023/10/10 09:11:20;;;;;;;32.63;26.05;;;;;;;14.91;100.00;101761.94;5051980;28;20068;-64
2023/10/10 09:13:51;;;;;;;34.03;25.80;;;;;;;14.92;100.00;101758.03;5051528;28;20158;-65
2023/10/10 09:16:40;;;;;;;34.92;26.40;;;;;;;14.99;100.00;101768.75;5051184;28;20033;-65
2023/10/10 09:19:08;;;;;;;33.15;26.52;;;;;;;15.03;100.00;101760.56;5051541;28;20112;-65
2023/10/10 09:21:50;;;;;;;35.40;25.55;;;;;;;15.11;100.00;101765.41;5051239;28;20049;-64
2023/10/10 09:24:35;;;;;;;32.55;26.40;;;;;;;15.12;100.00;101762.28;5051701;28;20032;-64
2023/10/10 09:27:21;;;;;;;33.80;26.27;;;;;;;15.19;100.00;101747.91;5051384;28;20021;-64
2023/10/10 09:29:54;;;;;;;30.42;24.88;;;;;;;15.20;100.00;101748.75;5051495;28;20114;-63
2023/10/10 09:32:27;;;;;;;32.13;25.03;;;;;;;15.33;100.00;101753.44;5051442;28;20090;-65
2023/10/10 09:34:54;;;;;;;32.55;25.30;;;;;;;15.39;100.00;101759.72;5051092;28;20036;-65
2023/10/10 09:37:29;;;;;;;31.65;24.67;;;;;;;15.52;100.00;101758.84;5051207;28;20476;-66
2023/10/10 09:39:55;;;;;;;31.02;24.23;;;;;;;15.65;100.00;101768.25;5051161;28;20033;-65
2023/10/10 09:42:44;;;;;;;30.80;23.58;;;;;;;15.74;100.00;101773.88;5050992;28;20099;-65
2023/10/10 09:45:23;;;;;;;29.45;23.30;;;;;;;15.79;100.00;101770.97;5050892;28;20051;-65
2023/10/10 09:48:06;;;;;;;33.13;24.77;;;;;;;15.87;100.00;101766.63;5051425;28;20032;-64
2023/10/10 09:50:37;;;;;;;28.80;23.20;;;;;;;15.98;100.00;101779.13;5050495;28;20037;-64
2023/10/10 09:53:06;;;;;;;30.17;22.98;;;;;;;16.03;100.00;101767.84;5051098;28;20029;-65
2023/10/10 10:00:45;;;;;;;29.52;22.75;;;;;;;16.40;100.00;101764.06;5051230;28;20044;-64
2023/10/10 10:03:31;;;;;;;31.02;22.08;;;;;;;16.52;100.00;101761.47;5050672;28;20053;-67
2023/10/10 10:09:31;;;;;;;27.33;21.60;;;;;;;16.72;100.00;101756.41;5049641;28;20060;-64
2023/10/10 10:12:19;;;;;;;28.13;20.85;;;;;;;16.80;100.00;101756.41;5050542;28;20028;-65
2023/10/10 10:15:19;;;;;;;28.98;21.33;;;;;;;16.91;100.00;101753.31;5050202;28;20372;-65
2023/10/10 10:18:12;;;;;;;28.48;21.10;;;;;;;16.90;100.00;101752.50;5050721;28;20035;-64
2023/10/10 10:20:46;;;;;;;27.70;21.60;;;;;;;16.92;100.00;101750.16;5050131;28;20033;-65
2023/10/10 10:23:27;;;;;;;27.35;20.88;;;;;;;17.03;100.00;101755.47;5033846;28;20044;-64
2023/10/10 10:26:10;;;;;;;28.98;20.95;;;;;;;17.09;100.00;101762.56;5050088;28;20033;-64
2023/10/10 10:28:36;;;;;;;26.40;19.98;;;;;;;17.11;100.00;101758.28;5050539;28;20045;-64
2023/10/10 10:31:06;;;;;;;29.13;21.13;;;;;;;17.17;100.00;101756.16;5051029;28;20037;-64
2023/10/10 10:33:34;;;;;;;26.38;19.83;;;;;;;17.24;100.00;101756.47;5063523;28;20341;-64
2023/10/10 10:36:14;;;;;;;28.20;19.92;;;;;;;17.33;100.00;101758.44;5060071;28;20033;-65
2023/10/10 10:38:45;;;;;;;28.60;20.48;;;;;;;17.41;100.00;101749.22;5063971;28;20055;-66
2023/10/10 10:41:18;;;;;;;26.98;19.40;;;;;;;17.54;100.00;101751.00;5030934;28;20037;-66
2023/10/10 10:43:50;;;;;;;26.15;19.65;;;;;;;17.63;100.00;101736.97;5066103;28;20045;-65
2023/10/10 10:46:27;;;;;;;27.70;19.58;;;;;;;17.68;99.99;101745.22;5070300;28;20028;-65
2023/10/10 10:49:01;;;;;;;28.00;20.90;;;;;;;17.76;99.70;101737.94;5070443;28;20033;-65
2023/10/10 10:52:17;;;;;;;27.77;19.85;;;;;;;17.86;100.00;101742.38;5070588;28;20130;-67
2023/10/10 10:54:37;;;;;;;27.98;19.58;;;;;;;17.98;99.84;101736.09;5065938;28;20146;-65
2023/10/10 10:57:03;;;;;;;26.88;19.67;;;;;;;18.05;98.63;101737.22;5030339;28;20029;-64
2023/10/10 10:59:35;;;;;;;26.80;19.95;;;;;;;18.11;97.81;101734.22;5030327;28;20033;-65
2023/10/10 11:02:05;;;;;;;27.40;20.10;;;;;;;18.16;96.85;101732.06;5030343;28;20061;-65
2023/10/10 11:07:00;;;;;;;26.33;19.40;;;;;;;18.28;97.19;101734.13;5030126;28;20148;-66
2023/10/10 11:09:28;;;;;;;27.20;18.92;;;;;;;18.33;96.43;101727.50;5029985;28;20033;-64
2023/10/10 11:12:05;;;;;;;26.42;19.15;;;;;;;18.46;97.52;101722.84;5053176;28;20036;-64
2023/10/10 11:14:32;;;;;;;26.55;19.48;;;;;;;18.57;95.79;101721.28;5058785;28;20179;-65
2023/10/10 11:16:58;;;;;;;27.30;19.52;;;;;;;18.62;95.53;101723.88;5051572;28;20043;-65
2023/10/10 11:22:00;;;;;;;26.90;19.20;;;;;;;18.73;93.01;101707.47;5060031;28;20056;-64
2023/10/10 11:24:37;;;;;;;26.30;18.95;;;;;;;18.82;94.13;101702.63;5056054;28;20051;-66
2023/10/10 11:29:34;;;;;;;25.70;18.65;;;;;;;19.03;93.88;101701.84;5065165;28;20167;-65
2023/10/10 11:32:08;;;;;;;28.02;19.42;;;;;;;19.08;91.28;101698.81;5057743;28;20101;-66
2023/10/10 11:34:46;;;;;;;26.52;18.52;;;;;;;19.15;89.54;101698.25;5062065;28;20464;-65
2023/10/10 11:37:23;;;;;;;25.67;17.15;;;;;;;19.20;86.97;101700.88;5057360;28;20044;-65
2023/10/10 11:39:57;;;;;;;26.40;18.15;;;;;;;19.29;88.39;101695.16;5051790;28;20453;-64
2023/10/10 11:42:33;;;;;;;25.52;17.92;;;;;;;19.35;88.81;101690.97;5049381;28;20439;-64
2023/10/10 11:45:17;;;;;;;25.70;17.60;;;;;;;19.47;89.99;101688.19;5051650;28;20344;-64
2023/10/10 11:47:44;;;;;;;26.30;17.02;;;;;;;19.52;88.41;101677.91;5069058;28;20039;-66
2023/10/10 11:50:15;;;;;;;25.38;17.27;;;;;;;19.62;87.96;101688.69;5069248;28;20020;-64
2023/10/10 11:52:52;;;;;;;24.70;17.00;;;;;;;19.72;87.48;101687.41;5068876;28;20074;-65
2023/10/10 11:55:20;;;;;;;25.25;17.30;;;;;;;19.82;85.32;101686.97;5068629;28;20340;-65
2023/10/10 11:57:47;;;;;;;26.48;17.25;;;;;;;19.84;83.72;101681.81;5068652;28;20032;-65
2023/10/10 12:00:13;;;;;;;26.40;17.60;;;;;;;19.87;84.63;101672.75;5068728;28;20142;-65
2023/10/10 12:02:41;;;;;;;25.83;17.23;;;;;;;19.90;83.37;101672.03;5068930;28;20040;-64
2023/10/10 12:05:53;;;;;;;25.45;17.23;;;;;;;19.94;83.75;101672.13;5068708;28;20044;-65
2023/10/10 12:07:54;;;;;;;24.45;16.05;;;;;;;20.09;84.43;101670.63;5061029;28;20048;-64
2023/10/10 12:10:25;;;;;;;25.17;15.85;;;;;;;20.15;83.05;101665.59;5068366;28;20143;-64
2023/10/10 12:12:53;;;;;;;23.58;15.23;;;;;;;20.27;82.76;101665.59;5068365;28;20028;-64
2023/10/10 12:15:22;;;;;;;22.67;15.45;;;;;;;20.35;82.59;101672.25;5036989;28;20349;-64
2023/10/10 12:17:47;;;;;;;25.13;15.38;;;;;;;20.44;81.28;101666.50;5031337;28;20022;-65
2023/10/10 12:20:15;;;;;;;25.13;15.68;;;;;;;20.50;80.67;101667.91;5014849;28;20044;-65
2023/10/10 12:22:41;;;;;;;22.83;15.02;;;;;;;20.54;78.69;101668.81;5032998;28;20041;-65
2023/10/10 12:25:13;;;;;;;22.75;15.30;;;;;;;20.56;77.05;101666.47;5032439;28;20032;-66
2023/10/10 12:27:46;;;;;;;22.73;15.40;;;;;;;20.61;78.41;101663.41;5032495;28;20112;-65
2023/10/10 12:30:18;;;;;;;24.27;15.52;;;;;;;20.63;79.84;101649.81;4998779;28;20099;-64
2023/10/10 12:32:46;;;;;;;25.27;15.60;;;;;;;20.73;79.46;101640.91;5032099;28;20025;-65
2023/10/10 12:35:12;;;;;;;23.08;15.00;;;;;;;20.79;77.23;101637.84;5032159;28;20053;-65
2023/10/10 12:37:38;;;;;;;24.80;15.18;;;;;;;20.79;77.05;101640.63;5032145;28;20138;-65
2023/10/10 12:40:09;;;;;;;27.05;15.07;;;;;;;20.80;76.64;101645.09;5032210;28;20342;-65
2023/10/10 12:42:34;;;;;;;23.60;15.65;;;;;;;20.82;76.86;101643.59;5032321;28;20036;-65
2023/10/10 12:45:01;;;;;;;23.52;15.73;;;;;;;20.82;77.95;101637.13;5032422;28;20033;-64
2023/10/10 12:47:27;;;;;;;24.52;15.70;;;;;;;20.89;78.15;101637.31;5032061;28;20036;-65
2023/10/10 12:49:56;;;;;;;23.67;14.70;;;;;;;20.97;79.29;101627.09;5032071;28;20029;-65
2023/10/10 12:52:21;;;;;;;22.98;15.20;;;;;;;21.07;77.49;101637.84;5032069;28;20040;-64
2023/10/10 12:54:57;;;;;;;24.75;15.13;;;;;;;21.09;76.08;101635.50;5031914;28;20049;-66
2023/10/10 12:57:23;;;;;;;24.27;15.38;;;;;;;21.14;76.06;101623.16;5032249;28;20037;-65
2023/10/10 12:59:51;;;;;;;24.08;15.85;;;;;;;21.13;75.95;101624.34;5032428;28;20021;-65
2023/10/10 13:02:16;;;;;;;23.45;14.98;;;;;;;21.21;75.29;101628.16;5032426;28;20116;-64
2023/10/10 13:04:46;;;;;;;22.27;14.50;;;;;;;21.24;73.63;101630.25;5031922;28;20164;-64
2023/10/10 13:07:15;;;;;;;23.08;15.18;;;;;;;21.29;72.96;101627.97;5031738;28;20467;-66
2023/10/10 13:09:43;;;;;;;22.35;14.45;;;;;;;21.39;71.18;101621.00;5032268;28;20047;-65
2023/10/10 13:12:09;;;;;;;22.75;13.93;;;;;;;21.46;70.47;101629.63;5031843;28;20036;-65
2023/10/10 13:14:34;;;;;;;21.95;14.25;;;;;;;21.56;69.90;101633.91;5031893;28;20072;-65
2023/10/10 13:19:44;;;;;;;21.35;13.75;;;;;;;21.82;68.51;101615.69;5032005;28;20037;-66
2023/10/10 13:22:20;;;;;;;21.83;13.45;;;;;;;21.86;66.94;101627.03;5031558;28;20045;-65
2023/10/10 13:24:46;;;;;;;22.65;13.77;;;;;;;21.82;65.27;101632.56;5031780;28;20041;-65
2023/10/10 13:27:11;;;;;;;23.35;14.10;;;;;;;21.77;66.04;101630.81;5030806;28;20033;-65
2023/10/10 13:29:37;;;;;;;21.17;13.60;;;;;;;21.74;65.74;101623.13;5031681;28;20488;-66
2023/10/10 13:32:04;;;;;;;23.67;13.80;;;;;;;21.77;67.51;101630.81;5031706;28;20272;-65
2023/10/10 13:34:30;;;;;;;22.45;13.50;;;;;;;21.83;66.74;101625.75;5013457;28;20033;-64
2023/10/10 13:36:55;;;;;;;20.88;13.45;;;;;;;21.85;65.80;101628.22;5031150;28;20052;-65
2023/10/10 13:39:33;;;;;;;21.58;13.30;;;;;;;21.93;66.03;101627.19;5013319;28;20018;-65
2023/10/10 13:41:58;;;;;;;23.40;12.60;;;;;;;22.08;63.87;101628.34;5031421;28;20037;-65
2023/10/10 13:44:24;;;;;;;21.27;12.43;;;;;;;22.14;62.22;101624.06;5031135;28;20373;-65
2023/10/10 13:46:52;;;;;;;20.55;12.40;;;;;;;22.13;60.52;101628.88;5030968;28;20091;-66
2023/10/10 13:49:18;;;;;;;23.73;12.68;;;;;;;22.15;61.62;101614.44;5031074;28;20105;-65
2023/10/10 13:51:44;;;;;;;21.88;12.43;;;;;;;22.24;62.00;101617.06;5031177;28;20036;-64
2023/10/10 13:54:13;;;;;;;20.83;12.50;;;;;;;22.34;61.13;101613.63;5030753;28;20071;-66
2023/10/10 13:56:43;;;;;;;20.60;12.63;;;;;;;22.46;60.32;101611.91;5030934;28;20167;-66
2023/10/10 13:59:10;;;;;;;20.52;12.57;;;;;;;22.49;59.73;101620.41;5030709;28;20037;-66
2023/10/10 14:01:36;;;;;;;20.20;12.50;;;;;;;22.54;58.85;101611.69;5043837;28;20024;-65